sensor_id;sensor_type;location;lat;lon;timestamp;P1;durP1;ratioP1;P2;durP2;ratioP2
71730;SDS011;65964;43.496;3.710;2023-07-20T00:00:52;8.65;;;2.88;;
71730;SDS011;65964;43.496;3.710;2023-07-20T00:03:19;7.00;;;2.65;;
71730;SDS011;65964;43.496;3.710;2023-07-20T00:05:48;4.97;;;2.55;;
71730;SDS011;65964;43.496;3.710;2023-07-20T00:08:14;6.22;;;2.70;;
71730;SDS011;65964;43.496;3.710;2023-07-20T00:10:41;6.22;;;2.55;;
71730;SDS011;65964;43.496;3.710;2023-07-20T00:13:07;6.63;;;2.60;;
71730;SDS011;65964;43.496;3.710;2023-07-20T00:15:33;5.55;;;2.58;;
71730;SDS011;65964;43.496;3.710;2023-07-20T00:17:59;6.13;;;2.42;;
71730;SDS011;65964;43.496;3.710;2023-07-20T00:20:25;6.20;;;2.78;;
71730;SDS011;65964;43.496;3.710;2023-07-20T00:22:51;5.38;;;2.53;;
71730;SDS011;65964;43.496;3.710;2023-07-20T00:25:18;6.20;;;2.60;;
71730;SDS011;65964;43.496;3.710;2023-07-20T00:27:44;6.80;;;2.40;;
71730;SDS011;65964;43.496;3.710;2023-07-20T00:30:10;6.70;;;2.67;;
71730;SDS011;65964;43.496;3.710;2023-07-20T00:32:36;5.55;;;2.45;;
71730;SDS011;65964;43.496;3.710;2023-07-20T00:35:02;7.60;;;2.40;;
71730;SDS011;65964;43.496;3.710;2023-07-20T00:37:28;7.03;;;2.58;;
71730;SDS011;65964;43.496;3.710;2023-07-20T00:39:54;6.75;;;2.60;;
71730;SDS011;65964;43.496;3.710;2023-07-20T00:42:20;6.35;;;2.80;;
71730;SDS011;65964;43.496;3.710;2023-07-20T00:44:46;5.15;;;2.22;;
71730;SDS011;65964;43.496;3.710;2023-07-20T00:47:12;5.90;;;2.33;;
71730;SDS011;65964;43.496;3.710;2023-07-20T00:49:38;6.03;;;2.38;;
71730;SDS011;65964;43.496;3.710;2023-07-20T00:52:06;5.57;;;2.35;;
71730;SDS011;65964;43.496;3.710;2023-07-20T00:54:32;6.55;;;2.42;;
71730;SDS011;65964;43.496;3.710;2023-07-20T00:56:59;6.78;;;2.50;;
71730;SDS011;65964;43.496;3.710;2023-07-20T00:59:27;6.90;;;2.30;;
71730;SDS011;65964;43.496;3.710;2023-07-20T01:01:53;7.38;;;2.60;;
71730;SDS011;65964;43.496;3.710;2023-07-20T01:04:19;5.82;;;2.13;;
71730;SDS011;65964;43.496;3.710;2023-07-20T01:06:53;5.57;;;2.50;;
71730;SDS011;65964;43.496;3.710;2023-07-20T01:09:31;4.75;;;2.30;;
71730;SDS011;65964;43.496;3.710;2023-07-20T01:12:11;5.90;;;2.10;;
71730;SDS011;65964;43.496;3.710;2023-07-20T01:14:38;7.97;;;2.30;;
71730;SDS011;65964;43.496;3.710;2023-07-20T01:17:04;4.30;;;2.40;;
71730;SDS011;65964;43.496;3.710;2023-07-20T01:19:30;4.72;;;2.40;;
71730;SDS011;65964;43.496;3.710;2023-07-20T01:21:58;5.68;;;2.47;;
71730;SDS011;65964;43.496;3.710;2023-07-20T01:27:08;8.23;;;2.45;;
71730;SDS011;65964;43.496;3.710;2023-07-20T01:29:43;5.22;;;2.10;;
71730;SDS011;65964;43.496;3.710;2023-07-20T01:32:16;6.88;;;2.28;;
71730;SDS011;65964;43.496;3.710;2023-07-20T01:34:43;6.00;;;2.10;;
71730;SDS011;65964;43.496;3.710;2023-07-20T01:37:09;6.43;;;2.22;;
71730;SDS011;65964;43.496;3.710;2023-07-20T01:39:36;5.10;;;2.30;;
71730;SDS011;65964;43.496;3.710;2023-07-20T01:42:03;5.47;;;2.33;;
71730;SDS011;65964;43.496;3.710;2023-07-20T01:44:29;9.00;;;2.80;;
71730;SDS011;65964;43.496;3.710;2023-07-20T01:46:55;5.20;;;2.30;;
71730;SDS011;65964;43.496;3.710;2023-07-20T01:49:21;6.43;;;2.15;;
71730;SDS011;65964;43.496;3.710;2023-07-20T01:51:47;6.88;;;2.58;;
71730;SDS011;65964;43.496;3.710;2023-07-20T01:54:13;5.70;;;2.20;;
71730;SDS011;65964;43.496;3.710;2023-07-20T01:56:39;5.63;;;2.28;;
71730;SDS011;65964;43.496;3.710;2023-07-20T01:59:05;5.72;;;2.42;;
71730;SDS011;65964;43.496;3.710;2023-07-20T02:01:31;4.55;;;2.10;;
71730;SDS011;65964;43.496;3.710;2023-07-20T02:03:57;9.60;;;2.60;;
71730;SDS011;65964;43.496;3.710;2023-07-20T02:06:23;5.72;;;2.30;;
71730;SDS011;65964;43.496;3.710;2023-07-20T02:08:49;5.60;;;2.30;;
71730;SDS011;65964;43.496;3.710;2023-07-20T02:11:15;5.38;;;2.25;;
71730;SDS011;65964;43.496;3.710;2023-07-20T02:13:41;4.70;;;2.30;;
71730;SDS011;65964;43.496;3.710;2023-07-20T02:16:07;6.70;;;2.50;;
71730;SDS011;65964;43.496;3.710;2023-07-20T02:18:33;5.38;;;2.20;;
71730;SDS011;65964;43.496;3.710;2023-07-20T02:21:00;6.05;;;2.33;;
71730;SDS011;65964;43.496;3.710;2023-07-20T02:23:26;5.75;;;2.22;;
71730;SDS011;65964;43.496;3.710;2023-07-20T02:25:52;6.07;;;2.45;;
71730;SDS011;65964;43.496;3.710;2023-07-20T02:28:18;4.60;;;2.08;;
71730;SDS011;65964;43.496;3.710;2023-07-20T02:30:44;5.22;;;2.42;;
71730;SDS011;65964;43.496;3.710;2023-07-20T02:33:11;5.03;;;2.40;;
71730;SDS011;65964;43.496;3.710;2023-07-20T02:35:37;5.10;;;2.30;;
71730;SDS011;65964;43.496;3.710;2023-07-20T02:38:03;5.60;;;2.38;;
71730;SDS011;65964;43.496;3.710;2023-07-20T02:40:29;5.55;;;2.53;;
71730;SDS011;65964;43.496;3.710;2023-07-20T02:42:55;9.85;;;2.40;;
71730;SDS011;65964;43.496;3.710;2023-07-20T02:45:21;6.68;;;2.55;;
71730;SDS011;65964;43.496;3.710;2023-07-20T02:47:47;5.85;;;2.40;;
71730;SDS011;65964;43.496;3.710;2023-07-20T02:50:13;7.63;;;2.88;;
71730;SDS011;65964;43.496;3.710;2023-07-20T02:52:39;7.03;;;2.50;;
71730;SDS011;65964;43.496;3.710;2023-07-20T02:55:05;7.00;;;2.72;;
71730;SDS011;65964;43.496;3.710;2023-07-20T02:57:31;6.40;;;2.63;;
71730;SDS011;65964;43.496;3.710;2023-07-20T02:59:57;6.65;;;2.47;;
71730;SDS011;65964;43.496;3.710;2023-07-20T03:02:23;5.95;;;2.40;;
71730;SDS011;65964;43.496;3.710;2023-07-20T03:04:50;5.22;;;2.42;;
71730;SDS011;65964;43.496;3.710;2023-07-20T03:07:16;7.68;;;2.40;;
71730;SDS011;65964;43.496;3.710;2023-07-20T03:09:42;6.13;;;2.50;;
71730;SDS011;65964;43.496;3.710;2023-07-20T03:12:08;5.55;;;2.30;;
71730;SDS011;65964;43.496;3.710;2023-07-20T03:14:34;6.43;;;2.55;;
71730;SDS011;65964;43.496;3.710;2023-07-20T03:17:00;4.85;;;2.50;;
71730;SDS011;65964;43.496;3.710;2023-07-20T03:19:26;7.32;;;2.90;;
71730;SDS011;65964;43.496;3.710;2023-07-20T03:21:53;8.38;;;3.05;;
71730;SDS011;65964;43.496;3.710;2023-07-20T03:24:19;6.32;;;2.70;;
71730;SDS011;65964;43.496;3.710;2023-07-20T03:26:46;5.53;;;2.60;;
71730;SDS011;65964;43.496;3.710;2023-07-20T03:29:12;5.63;;;2.50;;
71730;SDS011;65964;43.496;3.710;2023-07-20T03:31:38;5.38;;;2.70;;
71730;SDS011;65964;43.496;3.710;2023-07-20T03:34:04;4.22;;;2.35;;
71730;SDS011;65964;43.496;3.710;2023-07-20T03:36:31;5.90;;;2.40;;
71730;SDS011;65964;43.496;3.710;2023-07-20T03:38:57;5.53;;;2.28;;
71730;SDS011;65964;43.496;3.710;2023-07-20T03:41:23;7.63;;;2.60;;
71730;SDS011;65964;43.496;3.710;2023-07-20T03:43:49;5.45;;;2.35;;
71730;SDS011;65964;43.496;3.710;2023-07-20T03:46:15;5.07;;;2.60;;
71730;SDS011;65964;43.496;3.710;2023-07-20T03:48:42;5.35;;;2.47;;
71730;SDS011;65964;43.496;3.710;2023-07-20T03:51:08;5.78;;;2.33;;
71730;SDS011;65964;43.496;3.710;2023-07-20T03:53:34;4.00;;;2.20;;
71730;SDS011;65964;43.496;3.710;2023-07-20T03:56:00;5.35;;;2.30;;
71730;SDS011;65964;43.496;3.710;2023-07-20T03:58:26;6.40;;;2.47;;
71730;SDS011;65964;43.496;3.710;2023-07-20T04:00:52;8.07;;;3.30;;
71730;SDS011;65964;43.496;3.710;2023-07-20T04:03:18;6.85;;;2.55;;
71730;SDS011;65964;43.496;3.710;2023-07-20T04:05:44;8.52;;;2.88;;
71730;SDS011;65964;43.496;3.710;2023-07-20T04:08:11;6.95;;;2.70;;
71730;SDS011;65964;43.496;3.710;2023-07-20T04:10:37;4.47;;;2.20;;
71730;SDS011;65964;43.496;3.710;2023-07-20T04:13:04;6.60;;;2.80;;
71730;SDS011;65964;43.496;3.710;2023-07-20T04:15:30;7.68;;;2.78;;
71730;SDS011;65964;43.496;3.710;2023-07-20T04:17:56;8.30;;;2.72;;
71730;SDS011;65964;43.496;3.710;2023-07-20T04:20:22;6.32;;;2.63;;
71730;SDS011;65964;43.496;3.710;2023-07-20T04:22:48;7.65;;;2.70;;
71730;SDS011;65964;43.496;3.710;2023-07-20T04:25:15;6.18;;;2.50;;
71730;SDS011;65964;43.496;3.710;2023-07-20T04:27:41;5.07;;;2.60;;
71730;SDS011;65964;43.496;3.710;2023-07-20T04:30:07;10.32;;;2.90;;
71730;SDS011;65964;43.496;3.710;2023-07-20T04:32:34;8.70;;;2.90;;
71730;SDS011;65964;43.496;3.710;2023-07-20T04:35:00;7.40;;;2.72;;
71730;SDS011;65964;43.496;3.710;2023-07-20T04:37:26;7.13;;;2.67;;
71730;SDS011;65964;43.496;3.710;2023-07-20T04:39:52;6.15;;;2.53;;
71730;SDS011;65964;43.496;3.710;2023-07-20T04:42:18;6.43;;;2.80;;
71730;SDS011;65964;43.496;3.710;2023-07-20T04:44:45;15.80;;;3.40;;
71730;SDS011;65964;43.496;3.710;2023-07-20T04:47:11;16.67;;;3.92;;
71730;SDS011;65964;43.496;3.710;2023-07-20T04:49:37;11.32;;;3.00;;
71730;SDS011;65964;43.496;3.710;2023-07-20T04:52:03;10.57;;;2.80;;
71730;SDS011;65964;43.496;3.710;2023-07-20T04:54:29;12.35;;;3.30;;
71730;SDS011;65964;43.496;3.710;2023-07-20T04:56:55;12.27;;;3.25;;
71730;SDS011;65964;43.496;3.710;2023-07-20T04:59:21;8.38;;;3.00;;
71730;SDS011;65964;43.496;3.710;2023-07-20T05:01:47;8.00;;;2.95;;
71730;SDS011;65964;43.496;3.710;2023-07-20T05:04:13;11.40;;;3.00;;
71730;SDS011;65964;43.496;3.710;2023-07-20T05:06:39;13.73;;;3.08;;
71730;SDS011;65964;43.496;3.710;2023-07-20T05:09:05;8.68;;;2.85;;
71730;SDS011;65964;43.496;3.710;2023-07-20T05:11:32;8.57;;;2.90;;
71730;SDS011;65964;43.496;3.710;2023-07-20T05:13:59;9.98;;;3.00;;
71730;SDS011;65964;43.496;3.710;2023-07-20T05:16:25;7.28;;;2.85;;
71730;SDS011;65964;43.496;3.710;2023-07-20T05:18:51;9.95;;;2.97;;
71730;SDS011;65964;43.496;3.710;2023-07-20T05:21:17;11.50;;;3.03;;
71730;SDS011;65964;43.496;3.710;2023-07-20T05:23:43;8.02;;;2.80;;
71730;SDS011;65964;43.496;3.710;2023-07-20T05:26:10;7.35;;;2.70;;
71730;SDS011;65964;43.496;3.710;2023-07-20T05:28:36;6.80;;;2.67;;
71730;SDS011;65964;43.496;3.710;2023-07-20T05:31:02;9.63;;;3.33;;
71730;SDS011;65964;43.496;3.710;2023-07-20T05:33:28;8.52;;;2.92;;
71730;SDS011;65964;43.496;3.710;2023-07-20T05:35:54;8.35;;;2.90;;
71730;SDS011;65964;43.496;3.710;2023-07-20T05:38:20;8.35;;;3.00;;
71730;SDS011;65964;43.496;3.710;2023-07-20T05:40:47;7.10;;;3.03;;
71730;SDS011;65964;43.496;3.710;2023-07-20T05:43:13;10.23;;;3.40;;
71730;SDS011;65964;43.496;3.710;2023-07-20T05:45:42;7.93;;;3.28;;
71730;SDS011;65964;43.496;3.710;2023-07-20T05:48:10;9.07;;;3.10;;
71730;SDS011;65964;43.496;3.710;2023-07-20T05:50:37;8.35;;;3.22;;
71730;SDS011;65964;43.496;3.710;2023-07-20T05:53:03;7.55;;;3.15;;
71730;SDS011;65964;43.496;3.710;2023-07-20T05:55:29;7.35;;;3.22;;
71730;SDS011;65964;43.496;3.710;2023-07-20T05:57:55;8.85;;;3.10;;
71730;SDS011;65964;43.496;3.710;2023-07-20T06:00:21;10.20;;;3.10;;
71730;SDS011;65964;43.496;3.710;2023-07-20T06:02:51;8.68;;;3.38;;
71730;SDS011;65964;43.496;3.710;2023-07-20T06:05:18;13.32;;;3.92;;
71730;SDS011;65964;43.496;3.710;2023-07-20T06:07:46;11.23;;;3.42;;
71730;SDS011;65964;43.496;3.710;2023-07-20T06:10:12;9.15;;;3.10;;
71730;SDS011;65964;43.496;3.710;2023-07-20T06:12:38;10.80;;;3.63;;
71730;SDS011;65964;43.496;3.710;2023-07-20T06:15:04;8.98;;;3.33;;
71730;SDS011;65964;43.496;3.710;2023-07-20T06:17:30;6.93;;;2.88;;
71730;SDS011;65964;43.496;3.710;2023-07-20T06:19:56;11.27;;;3.35;;
71730;SDS011;65964;43.496;3.710;2023-07-20T06:22:22;11.40;;;3.38;;
71730;SDS011;65964;43.496;3.710;2023-07-20T06:24:48;13.73;;;4.07;;
71730;SDS011;65964;43.496;3.710;2023-07-20T06:27:14;10.98;;;3.40;;
71730;SDS011;65964;43.496;3.710;2023-07-20T06:29:41;12.55;;;4.18;;
71730;SDS011;65964;43.496;3.710;2023-07-20T06:32:07;7.00;;;3.05;;
71730;SDS011;65964;43.496;3.710;2023-07-20T06:34:33;10.10;;;3.85;;
71730;SDS011;65964;43.496;3.710;2023-07-20T06:37:03;10.18;;;3.40;;
71730;SDS011;65964;43.496;3.710;2023-07-20T06:39:29;8.30;;;3.53;;
71730;SDS011;65964;43.496;3.710;2023-07-20T06:41:55;11.10;;;3.55;;
71730;SDS011;65964;43.496;3.710;2023-07-20T06:44:22;7.47;;;3.03;;
71730;SDS011;65964;43.496;3.710;2023-07-20T06:46:48;5.57;;;3.00;;
71730;SDS011;65964;43.496;3.710;2023-07-20T06:49:26;11.40;;;3.53;;
71730;SDS011;65964;43.496;3.710;2023-07-20T06:51:53;7.15;;;3.13;;
71730;SDS011;65964;43.496;3.710;2023-07-20T06:54:19;12.95;;;3.42;;
71730;SDS011;65964;43.496;3.710;2023-07-20T06:56:45;6.50;;;3.78;;
71730;SDS011;65964;43.496;3.710;2023-07-20T06:59:11;9.95;;;3.80;;
71730;SDS011;65964;43.496;3.710;2023-07-20T07:01:37;7.85;;;3.13;;
71730;SDS011;65964;43.496;3.710;2023-07-20T07:04:04;5.93;;;3.25;;
71730;SDS011;65964;43.496;3.710;2023-07-20T07:06:30;10.20;;;3.75;;
71730;SDS011;65964;43.496;3.710;2023-07-20T07:08:57;10.80;;;4.00;;
71730;SDS011;65964;43.496;3.710;2023-07-20T07:11:23;6.50;;;3.38;;
71730;SDS011;65964;43.496;3.710;2023-07-20T07:13:50;6.35;;;3.22;;
71730;SDS011;65964;43.496;3.710;2023-07-20T07:16:16;6.00;;;3.33;;
71730;SDS011;65964;43.496;3.710;2023-07-20T07:18:47;8.57;;;3.28;;
71730;SDS011;65964;43.496;3.710;2023-07-20T07:21:13;7.00;;;3.22;;
71730;SDS011;65964;43.496;3.710;2023-07-20T07:23:39;8.13;;;3.65;;
71730;SDS011;65964;43.496;3.710;2023-07-20T07:26:05;6.70;;;3.20;;
71730;SDS011;65964;43.496;3.710;2023-07-20T07:28:31;5.82;;;3.03;;
71730;SDS011;65964;43.496;3.710;2023-07-20T07:30:57;5.93;;;3.25;;
71730;SDS011;65964;43.496;3.710;2023-07-20T07:33:23;6.57;;;3.63;;
71730;SDS011;65964;43.496;3.710;2023-07-20T07:35:50;5.78;;;3.20;;
71730;SDS011;65964;43.496;3.710;2023-07-20T07:38:20;5.65;;;3.40;;
71730;SDS011;65964;43.496;3.710;2023-07-20T07:40:46;8.63;;;3.75;;
71730;SDS011;65964;43.496;3.710;2023-07-20T07:43:12;5.28;;;3.22;;
71730;SDS011;65964;43.496;3.710;2023-07-20T07:45:39;6.75;;;3.42;;
71730;SDS011;65964;43.496;3.710;2023-07-20T07:48:05;7.18;;;3.10;;
71730;SDS011;65964;43.496;3.710;2023-07-20T07:50:32;5.93;;;3.10;;
71730;SDS011;65964;43.496;3.710;2023-07-20T07:52:58;5.18;;;3.20;;
71730;SDS011;65964;43.496;3.710;2023-07-20T07:55:24;5.90;;;3.10;;
71730;SDS011;65964;43.496;3.710;2023-07-20T07:57:51;7.13;;;3.40;;
71730;SDS011;65964;43.496;3.710;2023-07-20T08:00:18;5.07;;;2.95;;
71730;SDS011;65964;43.496;3.710;2023-07-20T08:02:44;5.45;;;2.92;;
71730;SDS011;65964;43.496;3.710;2023-07-20T08:05:11;6.53;;;3.53;;
71730;SDS011;65964;43.496;3.710;2023-07-20T08:07:37;4.85;;;2.97;;
71730;SDS011;65964;43.496;3.710;2023-07-20T08:10:04;10.20;;;3.50;;
71730;SDS011;65964;43.496;3.710;2023-07-20T08:12:30;7.00;;;3.00;;
71730;SDS011;65964;43.496;3.710;2023-07-20T08:14:56;4.47;;;3.13;;
71730;SDS011;65964;43.496;3.710;2023-07-20T08:17:22;7.70;;;3.20;;
71730;SDS011;65964;43.496;3.710;2023-07-20T08:19:49;7.28;;;3.30;;
71730;SDS011;65964;43.496;3.710;2023-07-20T08:22:15;5.75;;;3.00;;
71730;SDS011;65964;43.496;3.710;2023-07-20T08:24:42;6.47;;;3.50;;
71730;SDS011;65964;43.496;3.710;2023-07-20T08:27:08;6.18;;;3.22;;
71730;SDS011;65964;43.496;3.710;2023-07-20T08:29:35;6.35;;;3.20;;
71730;SDS011;65964;43.496;3.710;2023-07-20T08:32:01;6.63;;;3.60;;
71730;SDS011;65964;43.496;3.710;2023-07-20T08:34:29;7.82;;;3.30;;
71730;SDS011;65964;43.496;3.710;2023-07-20T08:36:55;5.35;;;3.13;;
71730;SDS011;65964;43.496;3.710;2023-07-20T08:39:21;9.93;;;4.72;;
71730;SDS011;65964;43.496;3.710;2023-07-20T08:41:48;10.93;;;3.80;;
71730;SDS011;65964;43.496;3.710;2023-07-20T08:44:14;7.05;;;3.55;;
71730;SDS011;65964;43.496;3.710;2023-07-20T08:46:40;9.00;;;4.20;;
71730;SDS011;65964;43.496;3.710;2023-07-20T08:49:07;7.90;;;3.50;;
71730;SDS011;65964;43.496;3.710;2023-07-20T08:51:33;8.15;;;3.60;;
71730;SDS011;65964;43.496;3.710;2023-07-20T08:54:01;4.90;;;3.00;;
71730;SDS011;65964;43.496;3.710;2023-07-20T08:56:27;10.18;;;4.90;;
71730;SDS011;65964;43.496;3.710;2023-07-20T08:58:53;7.43;;;3.20;;
71730;SDS011;65964;43.496;3.710;2023-07-20T09:01:19;6.93;;;3.97;;
71730;SDS011;65964;43.496;3.710;2023-07-20T09:03:46;8.07;;;3.70;;
71730;SDS011;65964;43.496;3.710;2023-07-20T09:06:12;10.65;;;5.95;;
71730;SDS011;65964;43.496;3.710;2023-07-20T09:08:39;12.80;;;6.05;;
71730;SDS011;65964;43.496;3.710;2023-07-20T09:11:05;11.27;;;6.15;;
71730;SDS011;65964;43.496;3.710;2023-07-20T09:13:34;7.00;;;4.00;;
71730;SDS011;65964;43.496;3.710;2023-07-20T09:16:00;6.50;;;3.60;;
71730;SDS011;65964;43.496;3.710;2023-07-20T09:18:29;5.20;;;3.13;;
71730;SDS011;65964;43.496;3.710;2023-07-20T09:20:59;5.68;;;3.45;;
71730;SDS011;65964;43.496;3.710;2023-07-20T09:23:30;7.82;;;3.40;;
71730;SDS011;65964;43.496;3.710;2023-07-20T09:25:57;7.55;;;3.70;;
71730;SDS011;65964;43.496;3.710;2023-07-20T09:28:23;7.53;;;3.92;;
71730;SDS011;65964;43.496;3.710;2023-07-20T09:30:49;9.77;;;4.15;;
71730;SDS011;65964;43.496;3.710;2023-07-20T09:33:19;5.10;;;3.60;;
71730;SDS011;65964;43.496;3.710;2023-07-20T09:35:46;4.97;;;3.40;;
71730;SDS011;65964;43.496;3.710;2023-07-20T09:38:13;5.68;;;3.40;;
71730;SDS011;65964;43.496;3.710;2023-07-20T09:40:40;6.43;;;3.80;;
71730;SDS011;65964;43.496;3.710;2023-07-20T09:43:09;7.40;;;3.60;;
71730;SDS011;65964;43.496;3.710;2023-07-20T09:48:08;6.00;;;3.30;;
71730;SDS011;65964;43.496;3.710;2023-07-20T09:53:00;7.72;;;3.40;;
71730;SDS011;65964;43.496;3.710;2023-07-20T09:55:27;5.20;;;3.22;;
71730;SDS011;65964;43.496;3.710;2023-07-20T09:57:54;7.35;;;3.55;;
71730;SDS011;65964;43.496;3.710;2023-07-20T10:00:21;11.00;;;3.72;;
71730;SDS011;65964;43.496;3.710;2023-07-20T10:02:47;8.77;;;3.33;;
71730;SDS011;65964;43.496;3.710;2023-07-20T10:05:17;6.72;;;3.70;;
71730;SDS011;65964;43.496;3.710;2023-07-20T10:07:44;9.25;;;3.60;;
71730;SDS011;65964;43.496;3.710;2023-07-20T10:10:13;7.85;;;3.70;;
71730;SDS011;65964;43.496;3.710;2023-07-20T10:12:40;7.40;;;3.60;;
71730;SDS011;65964;43.496;3.710;2023-07-20T10:15:10;6.75;;;3.33;;
71730;SDS011;65964;43.496;3.710;2023-07-20T10:17:37;9.55;;;3.60;;
71730;SDS011;65964;43.496;3.710;2023-07-20T10:20:06;5.60;;;3.30;;
71730;SDS011;65964;43.496;3.710;2023-07-20T10:22:34;8.48;;;3.47;;
71730;SDS011;65964;43.496;3.710;2023-07-20T10:25:00;14.55;;;4.40;;
71730;SDS011;65964;43.496;3.710;2023-07-20T10:27:29;7.97;;;3.63;;
71730;SDS011;65964;43.496;3.710;2023-07-20T10:29:55;8.65;;;3.50;;
71730;SDS011;65964;43.496;3.710;2023-07-20T10:32:24;7.75;;;3.40;;
71730;SDS011;65964;43.496;3.710;2023-07-20T10:34:53;10.63;;;3.53;;
71730;SDS011;65964;43.496;3.710;2023-07-20T10:42:55;9.27;;;3.63;;
71730;SDS011;65964;43.496;3.710;2023-07-20T10:45:28;7.63;;;3.60;;
71730;SDS011;65964;43.496;3.710;2023-07-20T10:47:58;9.48;;;3.80;;
71730;SDS011;65964;43.496;3.710;2023-07-20T10:50:24;7.18;;;3.30;;
71730;SDS011;65964;43.496;3.710;2023-07-20T10:53:03;8.75;;;3.65;;
71730;SDS011;65964;43.496;3.710;2023-07-20T10:55:30;9.98;;;3.42;;
71730;SDS011;65964;43.496;3.710;2023-07-20T10:58:06;7.10;;;3.63;;
71730;SDS011;65964;43.496;3.710;2023-07-20T11:00:32;8.23;;;3.40;;
71730;SDS011;65964;43.496;3.710;2023-07-20T11:02:58;7.68;;;3.60;;
71730;SDS011;65964;43.496;3.710;2023-07-20T11:08:03;7.38;;;3.50;;
71730;SDS011;65964;43.496;3.710;2023-07-20T11:10:29;6.88;;;3.30;;
71730;SDS011;65964;43.496;3.710;2023-07-20T11:18:22;9.48;;;3.33;;
71730;SDS011;65964;43.496;3.710;2023-07-20T11:20:51;12.10;;;3.70;;
71730;SDS011;65964;43.496;3.710;2023-07-20T11:23:17;10.32;;;3.35;;
71730;SDS011;65964;43.496;3.710;2023-07-20T11:25:44;9.32;;;3.75;;
71730;SDS011;65964;43.496;3.710;2023-07-20T11:28:10;8.88;;;3.63;;
71730;SDS011;65964;43.496;3.710;2023-07-20T11:30:36;8.75;;;3.80;;
71730;SDS011;65964;43.496;3.710;2023-07-20T11:33:03;9.18;;;3.50;;
71730;SDS011;65964;43.496;3.710;2023-07-20T11:35:29;9.68;;;3.38;;
71730;SDS011;65964;43.496;3.710;2023-07-20T11:37:56;8.80;;;3.70;;
71730;SDS011;65964;43.496;3.710;2023-07-20T11:40:22;7.30;;;3.45;;
71730;SDS011;65964;43.496;3.710;2023-07-20T11:42:49;6.82;;;3.22;;
71730;SDS011;65964;43.496;3.710;2023-07-20T11:45:16;9.75;;;3.30;;
71730;SDS011;65964;43.496;3.710;2023-07-20T11:47:43;10.40;;;3.50;;
71730;SDS011;65964;43.496;3.710;2023-07-20T11:50:09;7.07;;;3.70;;
71730;SDS011;65964;43.496;3.710;2023-07-20T11:52:36;8.25;;;3.60;;
71730;SDS011;65964;43.496;3.710;2023-07-20T11:55:02;10.23;;;3.50;;
71730;SDS011;65964;43.496;3.710;2023-07-20T11:57:28;8.18;;;3.60;;
71730;SDS011;65964;43.496;3.710;2023-07-20T11:59:55;6.82;;;3.50;;
71730;SDS011;65964;43.496;3.710;2023-07-20T12:02:28;8.35;;;3.67;;
71730;SDS011;65964;43.496;3.710;2023-07-20T12:04:55;7.53;;;3.45;;
71730;SDS011;65964;43.496;3.710;2023-07-20T12:07:22;8.73;;;3.30;;
71730;SDS011;65964;43.496;3.710;2023-07-20T12:15:14;8.70;;;3.65;;
71730;SDS011;65964;43.496;3.710;2023-07-20T12:17:49;9.63;;;3.33;;
71730;SDS011;65964;43.496;3.710;2023-07-20T12:22:55;8.82;;;3.28;;
71730;SDS011;65964;43.496;3.710;2023-07-20T12:25:22;5.70;;;3.28;;
71730;SDS011;65964;43.496;3.710;2023-07-20T12:27:48;7.38;;;3.30;;
71730;SDS011;65964;43.496;3.710;2023-07-20T12:30:14;7.28;;;3.22;;
71730;SDS011;65964;43.496;3.710;2023-07-20T12:32:40;8.75;;;3.53;;
71730;SDS011;65964;43.496;3.710;2023-07-20T12:35:07;6.78;;;3.40;;
71730;SDS011;65964;43.496;3.710;2023-07-20T12:37:33;7.53;;;3.50;;
71730;SDS011;65964;43.496;3.710;2023-07-20T12:39:59;9.27;;;3.22;;
71730;SDS011;65964;43.496;3.710;2023-07-20T12:42:25;6.85;;;3.08;;
71730;SDS011;65964;43.496;3.710;2023-07-20T12:44:51;5.80;;;3.20;;
71730;SDS011;65964;43.496;3.710;2023-07-20T12:47:17;6.07;;;3.15;;
71730;SDS011;65964;43.496;3.710;2023-07-20T12:49:44;7.25;;;3.40;;
71730;SDS011;65964;43.496;3.710;2023-07-20T12:52:10;7.65;;;3.38;;
71730;SDS011;65964;43.496;3.710;2023-07-20T12:54:36;7.63;;;3.55;;
71730;SDS011;65964;43.496;3.710;2023-07-20T12:57:02;7.47;;;3.35;;
71730;SDS011;65964;43.496;3.710;2023-07-20T12:59:29;9.52;;;3.65;;
71730;SDS011;65964;43.496;3.710;2023-07-20T13:01:55;7.03;;;3.20;;
71730;SDS011;65964;43.496;3.710;2023-07-20T13:04:21;6.35;;;3.33;;
71730;SDS011;65964;43.496;3.710;2023-07-20T13:06:47;5.93;;;3.10;;
71730;SDS011;65964;43.496;3.710;2023-07-20T13:09:13;7.25;;;3.50;;
71730;SDS011;65964;43.496;3.710;2023-07-20T13:11:39;8.30;;;3.67;;
71730;SDS011;65964;43.496;3.710;2023-07-20T13:14:05;9.05;;;3.33;;
71730;SDS011;65964;43.496;3.710;2023-07-20T13:16:31;7.65;;;3.30;;
71730;SDS011;65964;43.496;3.710;2023-07-20T13:18:57;5.88;;;3.38;;
71730;SDS011;65964;43.496;3.710;2023-07-20T13:21:23;6.38;;;3.20;;
71730;SDS011;65964;43.496;3.710;2023-07-20T13:23:49;6.47;;;3.30;;
71730;SDS011;65964;43.496;3.710;2023-07-20T13:26:15;9.43;;;3.60;;
71730;SDS011;65964;43.496;3.710;2023-07-20T13:28:42;9.50;;;3.58;;
71730;SDS011;65964;43.496;3.710;2023-07-20T13:31:08;7.45;;;3.20;;
71730;SDS011;65964;43.496;3.710;2023-07-20T13:33:35;8.45;;;3.58;;
71730;SDS011;65964;43.496;3.710;2023-07-20T13:36:02;7.15;;;3.08;;
71730;SDS011;65964;43.496;3.710;2023-07-20T13:38:30;7.75;;;3.38;;
71730;SDS011;65964;43.496;3.710;2023-07-20T13:40:56;6.70;;;3.17;;
71730;SDS011;65964;43.496;3.710;2023-07-20T13:43:22;7.45;;;3.17;;
71730;SDS011;65964;43.496;3.710;2023-07-20T13:45:48;9.07;;;3.60;;
71730;SDS011;65964;43.496;3.710;2023-07-20T13:48:14;6.47;;;3.30;;
71730;SDS011;65964;43.496;3.710;2023-07-20T13:50:42;7.80;;;3.35;;
71730;SDS011;65964;43.496;3.710;2023-07-20T13:53:08;7.13;;;3.50;;
71730;SDS011;65964;43.496;3.710;2023-07-20T13:55:34;7.05;;;3.60;;
71730;SDS011;65964;43.496;3.710;2023-07-20T13:58:02;6.53;;;3.30;;
71730;SDS011;65964;43.496;3.710;2023-07-20T14:00:28;6.47;;;3.35;;
71730;SDS011;65964;43.496;3.710;2023-07-20T14:02:57;13.35;;;3.88;;
71730;SDS011;65964;43.496;3.710;2023-07-20T14:05:24;7.65;;;3.33;;
71730;SDS011;65964;43.496;3.710;2023-07-20T14:07:50;6.53;;;3.55;;
71730;SDS011;65964;43.496;3.710;2023-07-20T14:10:16;8.15;;;3.35;;
71730;SDS011;65964;43.496;3.710;2023-07-20T14:12:42;5.90;;;3.40;;
71730;SDS011;65964;43.496;3.710;2023-07-20T14:15:10;9.05;;;4.00;;
71730;SDS011;65964;43.496;3.710;2023-07-20T14:17:36;9.32;;;3.45;;
71730;SDS011;65964;43.496;3.710;2023-07-20T14:20:02;10.73;;;3.38;;
71730;SDS011;65964;43.496;3.710;2023-07-20T14:22:31;7.63;;;3.38;;
71730;SDS011;65964;43.496;3.710;2023-07-20T14:24:57;13.75;;;3.72;;
71730;SDS011;65964;43.496;3.710;2023-07-20T14:27:24;7.53;;;3.53;;
71730;SDS011;65964;43.496;3.710;2023-07-20T14:29:50;7.97;;;3.45;;
71730;SDS011;65964;43.496;3.710;2023-07-20T14:32:16;5.57;;;3.10;;
71730;SDS011;65964;43.496;3.710;2023-07-20T14:34:42;8.90;;;3.50;;
71730;SDS011;65964;43.496;3.710;2023-07-20T14:37:08;7.38;;;3.30;;
71730;SDS011;65964;43.496;3.710;2023-07-20T14:39:34;7.68;;;3.60;;
71730;SDS011;65964;43.496;3.710;2023-07-20T14:42:00;10.18;;;4.00;;
71730;SDS011;65964;43.496;3.710;2023-07-20T14:44:28;6.90;;;3.03;;
71730;SDS011;65964;43.496;3.710;2023-07-20T14:46:54;6.78;;;3.38;;
71730;SDS011;65964;43.496;3.710;2023-07-20T14:49:21;6.57;;;3.40;;
71730;SDS011;65964;43.496;3.710;2023-07-20T14:51:47;7.20;;;3.45;;
71730;SDS011;65964;43.496;3.710;2023-07-20T14:54:14;11.77;;;3.58;;
71730;SDS011;65964;43.496;3.710;2023-07-20T14:56:46;6.45;;;3.25;;
71730;SDS011;65964;43.496;3.710;2023-07-20T14:59:14;7.13;;;3.63;;
71730;SDS011;65964;43.496;3.710;2023-07-20T15:01:40;9.00;;;3.60;;
71730;SDS011;65964;43.496;3.710;2023-07-20T15:04:07;8.50;;;3.65;;
71730;SDS011;65964;43.496;3.710;2023-07-20T15:06:34;7.55;;;3.78;;
71730;SDS011;65964;43.496;3.710;2023-07-20T15:09:00;6.88;;;3.53;;
71730;SDS011;65964;43.496;3.710;2023-07-20T15:11:26;7.53;;;3.30;;